Time;durP1;ratioP1;P1;durP2;ratioP2;P2;SDS_P1;SDS_P2;PMS_P1;PMS_P2;Temp;Humidity;BMP_temperature;BMP_pressure;BME280_temperature;BME280_humidity;BME280_pressure;Samples;Min_cycle;Max_cycle;Signal;HPM_P1;HPM_P2
2023/03/31 00:04:02;;;;;;;8.00;3.42;;;;;;;;;;10329760;28;20517;-60
2023/03/31 00:09:06;;;;;;;9.52;2.90;;;;;;;;;;10342261;28;20049;-60
2023/03/31 00:14:07;;;;;;;7.10;3.03;;;;;;;;;;10330082;28;20221;-60
2023/03/31 00:19:16;;;;;;;3.88;2.42;;;;;;;;;;10354733;28;20049;-60
2023/03/31 00:24:18;;;;;;;8.30;3.67;;;;;;;;;;10330333;28;20070;-60
2023/03/31 00:29:18;;;;;;;5.60;3.03;;;;;;;;;;10365757;28;20033;-59
2023/03/31 00:34:19;;;;;;;9.85;2.90;;;;;;;;;;10365040;28;20471;-60
2023/03/31 00:39:19;;;;;;;6.95;2.92;;;;;;;;;;10343593;28;20363;-60
2023/03/31 00:44:23;;;;;;;5.75;2.95;;;;;;;;;;10341100;28;20454;-60
2023/03/31 00:49:47;;;;;;;7.43;3.33;;;;;;;;;;10383098;28;20036;-60
2023/03/31 00:55:00;;;;;;;7.57;2.90;;;;;;;;;;10383481;28;20376;-61
2023/03/31 01:00:26;;;;;;;3.78;2.50;;;;;;;;;;10387049;28;20042;-60
2023/03/31 01:05:35;;;;;;;5.35;2.60;;;;;;;;;;10381129;28;20428;-60
2023/03/31 01:10:52;;;;;;;5.97;2.72;;;;;;;;;;10397242;28;20021;-60
2023/03/31 01:15:53;;;;;;;5.28;2.50;;;;;;;;;;10388124;28;20087;-60
2023/03/31 01:21:14;;;;;;;6.07;2.58;;;;;;;;;;10377155;28;20057;-60
2023/03/31 01:26:39;;;;;;;4.90;2.75;;;;;;;;;;10403264;28;20504;-60
2023/03/31 01:31:48;;;;;;;5.57;2.65;;;;;;;;;;10382822;28;20063;-60
2023/03/31 01:37:17;;;;;;;5.15;2.63;;;;;;;;;;10388090;28;20045;-60
2023/03/31 01:42:32;;;;;;;4.75;2.55;;;;;;;;;;10372784;28;20034;-59
2023/03/31 01:47:50;;;;;;;4.68;2.80;;;;;;;;;;10375149;28;20058;-60
2023/03/31 01:53:16;;;;;;;3.90;2.27;;;;;;;;;;10392258;28;20045;-59
2023/03/31 01:58:41;;;;;;;4.25;2.63;;;;;;;;;;10395193;28;20026;-60
2023/03/31 02:04:07;;;;;;;7.72;2.90;;;;;;;;;;10395341;28;20203;-59
2023/03/31 02:09:18;;;;;;;3.15;2.20;;;;;;;;;;10386353;28;20065;-60
2023/03/31 02:14:24;;;;;;;5.82;2.40;;;;;;;;;;10385650;28;20541;-60
2023/03/31 02:19:31;;;;;;;5.68;2.50;;;;;;;;;;10407069;28;20120;-60
2023/03/31 02:24:35;;;;;;;4.03;2.60;;;;;;;;;;10394120;28;20060;-60
2023/03/31 02:29:35;;;;;;;3.88;2.58;;;;;;;;;;10394084;28;20284;-61
2023/03/31 02:34:36;;;;;;;5.70;2.30;;;;;;;;;;10401450;28;20300;-60
2023/03/31 02:39:40;;;;;;;4.07;2.33;;;;;;;;;;10382551;28;20076;-60
2023/03/31 02:44:41;;;;;;;4.07;2.53;;;;;;;;;;10387275;28;20025;-60
2023/03/31 02:49:49;;;;;;;6.18;2.47;;;;;;;;;;10387828;28;20385;-61
2023/03/31 02:55:19;;;;;;;3.97;2.37;;;;;;;;;;10364279;28;20572;-61
2023/03/31 03:00:39;;;;;;;3.20;2.17;;;;;;;;;;10375561;28;20071;-60
2023/03/31 03:06:04;;;;;;;4.47;2.20;;;;;;;;;;10385518;28;20033;-60
2023/03/31 03:11:20;;;;;;;3.90;2.28;;;;;;;;;;10381271;28;20030;-60
2023/03/31 03:16:36;;;;;;;3.55;2.30;;;;;;;;;;10394583;28;20018;-61
2023/03/31 03:21:36;;;;;;;6.68;2.28;;;;;;;;;;10380345;28;20496;-59
2023/03/31 03:26:37;;;;;;;4.47;2.30;;;;;;;;;;10381419;28;20025;-59
2023/03/31 03:31:38;;;;;;;3.80;2.22;;;;;;;;;;10382787;28;20193;-60
2023/03/31 03:36:39;;;;;;;5.25;3.08;;;;;;;;;;10385237;28;20097;-60
2023/03/31 03:41:39;;;;;;;3.47;2.40;;;;;;;;;;10376286;28;20470;-60
2023/03/31 03:46:40;;;;;;;2.85;2.10;;;;;;;;;;10382246;28;20056;-60
2023/03/31 03:51:41;;;;;;;2.70;2.22;;;;;;;;;;10386826;28;20029;-60
2023/03/31 03:56:41;;;;;;;3.35;2.25;;;;;;;;;;10373903;28;20401;-60
2023/03/31 04:01:42;;;;;;;3.80;2.17;;;;;;;;;;10388011;28;20037;-60
2023/03/31 04:06:42;;;;;;;3.65;2.75;;;;;;;;;;10369825;28;20423;-59
2023/03/31 04:11:43;;;;;;;4.43;2.50;;;;;;;;;;10405093;28;21255;-59
2023/03/31 04:16:45;;;;;;;4.03;2.25;;;;;;;;;;10379095;28;20072;-60
2023/03/31 04:21:49;;;;;;;2.30;2.10;;;;;;;;;;10390924;28;20113;-60
2023/03/31 04:26:50;;;;;;;4.38;1.85;;;;;;;;;;10379403;28;20017;-61
2023/03/31 04:31:52;;;;;;;2.53;2.00;;;;;;;;;;10391925;28;20392;-60
2023/03/31 04:36:55;;;;;;;4.38;2.50;;;;;;;;;;10379102;28;20069;-59
2023/03/31 04:41:59;;;;;;;3.38;2.05;;;;;;;;;;10379065;28;20551;-60
2023/03/31 04:47:01;;;;;;;2.75;2.08;;;;;;;;;;10379127;28;20133;-60
2023/03/31 04:52:02;;;;;;;2.60;2.08;;;;;;;;;;10378165;28;20053;-60
2023/03/31 04:57:07;;;;;;;3.47;2.72;;;;;;;;;;10370953;28;20034;-58
2023/03/31 05:02:07;;;;;;;3.15;2.05;;;;;;;;;;10358324;28;20061;-60
2023/03/31 05:07:08;;;;;;;3.60;1.85;;;;;;;;;;10347917;28;20045;-58
2023/03/31 05:12:08;;;;;;;2.70;2.22;;;;;;;;;;10371590;28;20026;-58
2023/03/31 05:17:09;;;;;;;3.13;2.03;;;;;;;;;;10371183;28;20030;-58
2023/03/31 05:22:09;;;;;;;3.42;1.92;;;;;;;;;;10370701;28;20045;-58
2023/03/31 05:27:10;;;;;;;4.60;1.67;;;;;;;;;;10371849;28;20241;-58
2023/03/31 05:32:11;;;;;;;1.70;1.50;;;;;;;;;;10370268;28;20033;-58
2023/03/31 05:37:11;;;;;;;5.85;2.17;;;;;;;;;;10361283;28;20037;-58
2023/03/31 05:42:12;;;;;;;3.67;2.42;;;;;;;;;;10369576;28;20030;-58
2023/03/31 05:47:12;;;;;;;4.43;2.40;;;;;;;;;;10367284;28;20037;-59
2023/03/31 05:52:13;;;;;;;2.60;1.90;;;;;;;;;;10330463;28;1123692;-59
2023/03/31 05:57:14;;;;;;;4.88;2.40;;;;;;;;;;10397862;28;20489;-60
2023/03/31 06:02:14;;;;;;;4.47;2.58;;;;;;;;;;10385495;28;20563;-59
2023/03/31 06:07:16;;;;;;;7.22;2.47;;;;;;;;;;10381526;28;20026;-60
2023/03/31 06:12:17;;;;;;;3.97;2.60;;;;;;;;;;10372184;28;20141;-61
2023/03/31 06:17:17;;;;;;;12.15;3.40;;;;;;;;;;10367988;28;20075;-61
2023/03/31 06:22:18;;;;;;;5.95;2.80;;;;;;;;;;10371345;28;20538;-60
2023/03/31 06:27:19;;;;;;;11.10;2.88;;;;;;;;;;10371569;28;20021;-61
2023/03/31 06:32:20;;;;;;;7.50;3.33;;;;;;;;;;10371511;28;20087;-61
2023/03/31 06:37:21;;;;;;;11.52;2.95;;;;;;;;;;10371395;28;20018;-60
2023/03/31 06:42:21;;;;;;;6.75;3.50;;;;;;;;;;10375001;28;20041;-60
2023/03/31 06:47:22;;;;;;;9.77;3.90;;;;;;;;;;10389328;28;20495;-60
2023/03/31 06:52:22;;;;;;;9.05;3.70;;;;;;;;;;10400891;28;20045;-59
2023/03/31 06:57:23;;;;;;;14.85;3.38;;;;;;;;;;10394837;28;20034;-61
2023/03/31 07:02:23;;;;;;;9.27;3.53;;;;;;;;;;10383040;28;20059;-58
2023/03/31 07:07:24;;;;;;;9.63;3.28;;;;;;;;;;10398815;28;20033;-59
2023/03/31 07:12:25;;;;;;;5.22;3.03;;;;;;;;;;10390723;28;20036;-59
2023/03/31 07:17:25;;;;;;;4.07;2.72;;;;;;;;;;10402677;28;20493;-59
2023/03/31 07:22:26;;;;;;;7.55;3.38;;;;;;;;;;10379887;28;20033;-60
2023/03/31 07:27:26;;;;;;;7.72;3.45;;;;;;;;;;10393758;28;20029;-61
2023/03/31 07:32:27;;;;;;;9.90;3.75;;;;;;;;;;10383267;28;20030;-59
2023/03/31 07:37:27;;;;;;;6.20;3.28;;;;;;;;;;10392540;28;20080;-58
2023/03/31 07:42:28;;;;;;;3.92;3.03;;;;;;;;;;10402987;28;20022;-61
2023/03/31 07:47:29;;;;;;;8.52;3.13;;;;;;;;;;10369717;28;20021;-58
2023/03/31 07:52:29;;;;;;;9.30;3.15;;;;;;;;;;10389599;28;20052;-58
2023/03/31 07:57:30;;;;;;;4.72;3.33;;;;;;;;;;10367745;28;20025;-58
2023/03/31 08:02:31;;;;;;;6.00;3.17;;;;;;;;;;10366810;28;20029;-59
2023/03/31 08:07:37;;;;;;;10.35;3.65;;;;;;;;;;10388801;28;20022;-58
2023/03/31 08:12:37;;;;;;;4.47;3.25;;;;;;;;;;10381207;28;20470;-60
2023/03/31 08:17:38;;;;;;;3.60;2.80;;;;;;;;;;10367217;28;20038;-61
2023/03/31 08:22:39;;;;;;;4.65;2.80;;;;;;;;;;10399417;28;20056;-60
2023/03/31 08:27:40;;;;;;;4.95;3.15;;;;;;;;;;10383525;28;20014;-61
2023/03/31 08:32:41;;;;;;;5.20;2.83;;;;;;;;;;10391343;28;20013;-58
2023/03/31 08:37:41;;;;;;;7.07;3.20;;;;;;;;;;10384884;28;20026;-59
2023/03/31 08:42:49;;;;;;;7.47;3.17;;;;;;;;;;10384806;28;20034;-58
2023/03/31 08:47:56;;;;;;;4.30;2.97;;;;;;;;;;10365481;28;20021;-58
2023/03/31 08:53:31;;;;;;;3.88;3.03;;;;;;;;;;10365071;28;20050;-58
2023/03/31 08:58:44;;;;;;;6.07;2.95;;;;;;;;;;10382047;28;20033;-58
2023/03/31 09:04:08;;;;;;;3.90;3.00;;;;;;;;;;10369467;28;20018;-59
2023/03/31 09:10:17;;;;;;;5.07;3.22;;;;;;;;;;10360020;28;20336;-59
2023/03/31 09:15:41;;;;;;;5.28;3.05;;;;;;;;;;10364555;28;20034;-58
2023/03/31 09:20:47;;;;;;;4.40;3.17;;;;;;;;;;10396261;28;20028;-58
2023/03/31 09:25:48;;;;;;;5.40;3.53;;;;;;;;;;10394613;28;20053;-58
2023/03/31 09:30:49;;;;;;;3.70;2.78;;;;;;;;;;10382763;28;20167;-59
2023/03/31 09:35:50;;;;;;;4.63;2.95;;;;;;;;;;10388906;28;20249;-58
2023/03/31 09:40:50;;;;;;;2.90;2.30;;;;;;;;;;10371188;28;20276;-58
2023/03/31 09:45:51;;;;;;;4.80;2.88;;;;;;;;;;10396267;28;20022;-58
2023/03/31 09:51:01;;;;;;;4.38;2.65;;;;;;;;;;10372583;28;20026;-58
2023/03/31 09:56:06;;;;;;;4.97;2.70;;;;;;;;;;10393088;28;20057;-59
2023/03/31 10:01:10;;;;;;;3.92;2.72;;;;;;;;;;10384544;28;20125;-61
2023/03/31 10:06:15;;;;;;;2.88;2.53;;;;;;;;;;10385490;28;20386;-58
2023/03/31 10:11:16;;;;;;;3.72;2.75;;;;;;;;;;10412408;28;20029;-59
2023/03/31 10:16:53;;;;;;;2.92;2.60;;;;;;;;;;10394996;28;20476;-59
2023/03/31 10:21:59;;;;;;;3.10;2.58;;;;;;;;;;10374504;28;21333;-58
2023/03/31 10:27:00;;;;;;;4.85;2.70;;;;;;;;;;10380879;28;20029;-58
2023/03/31 10:32:22;;;;;;;3.03;2.70;;;;;;;;;;10381896;28;20038;-59
2023/03/31 10:37:27;;;;;;;5.57;3.13;;;;;;;;;;10382889;28;20136;-61
2023/03/31 10:42:27;;;;;;;3.10;2.67;;;;;;;;;;10369105;28;20033;-61
2023/03/31 10:47:32;;;;;;;4.85;2.53;;;;;;;;;;10370971;28;20032;-59
2023/03/31 10:52:44;;;;;;;5.20;2.95;;;;;;;;;;10385520;28;20070;-61
2023/03/31 10:57:53;;;;;;;3.42;2.70;;;;;;;;;;10378038;28;20117;-62
2023/03/31 11:03:17;;;;;;;4.47;2.95;;;;;;;;;;10383115;28;20036;-58
2023/03/31 11:08:43;;;;;;;3.33;2.80;;;;;;;;;;10351269;28;20172;-58
2023/03/31 11:13:58;;;;;;;3.30;2.88;;;;;;;;;;10373531;28;20033;-58
2023/03/31 11:19:10;;;;;;;3.95;2.88;;;;;;;;;;10385935;28;20101;-59
2023/03/31 11:24:36;;;;;;;2.92;2.60;;;;;;;;;;10388323;28;20048;-58
2023/03/31 11:29:49;;;;;;;3.88;2.97;;;;;;;;;;10383670;28;20039;-59
2023/03/31 11:35:08;;;;;;;6.38;3.08;;;;;;;;;;10369047;28;20022;-58
2023/03/31 11:40:45;;;;;;;3.70;2.55;;;;;;;;;;10379669;28;20026;-58
2023/03/31 11:46:08;;;;;;;3.60;2.65;;;;;;;;;;10379297;28;20026;-59
2023/03/31 11:51:38;;;;;;;8.18;2.90;;;;;;;;;;10387687;28;20021;-59
2023/03/31 11:56:40;;;;;;;3.22;2.58;;;;;;;;;;10369367;28;20063;-59
2023/03/31 12:01:46;;;;;;;3.40;2.58;;;;;;;;;;10378003;28;20021;-58
2023/03/31 12:06:48;;;;;;;3.47;2.90;;;;;;;;;;10382451;28;20100;-58
2023/03/31 12:12:09;;;;;;;3.08;2.67;;;;;;;;;;10386827;28;20033;-61
2023/03/31 12:17:14;;;;;;;3.60;2.50;;;;;;;;;;10391578;28;20116;-61
2023/03/31 12:22:24;;;;;;;4.00;2.83;;;;;;;;;;10385945;28;20044;-60
2023/03/31 12:27:53;;;;;;;4.97;2.90;;;;;;;;;;10386343;28;20040;-60
2023/03/31 12:33:05;;;;;;;6.97;3.03;;;;;;;;;;10389495;28;20163;-59
2023/03/31 12:38:45;;;;;;;5.78;2.60;;;;;;;;;;10380121;28;20121;-61
2023/03/31 12:44:09;;;;;;;3.88;2.67;;;;;;;;;;10328094;28;20048;-61
2023/03/31 12:49:35;;;;;;;6.40;3.45;;;;;;;;;;10364802;28;20421;-60
2023/03/31 12:55:28;;;;;;;4.15;3.00;;;;;;;;;;10365690;28;20064;-58
2023/03/31 13:00:29;;;;;;;4.15;2.72;;;;;;;;;;10384096;28;20136;-58
2023/03/31 13:05:36;;;;;;;3.35;2.58;;;;;;;;;;10342609;28;20030;-58
2023/03/31 13:10:57;;;;;;;5.57;2.95;;;;;;;;;;10366132;28;20025;-59
2023/03/31 13:16:00;;;;;;;4.20;2.75;;;;;;;;;;10384070;28;20061;-58
2023/03/31 13:21:06;;;;;;;4.32;2.67;;;;;;;;;;10372547;28;20045;-58
2023/03/31 13:26:32;;;;;;;2.75;2.47;;;;;;;;;;10376734;28;20365;-60
2023/03/31 13:32:01;;;;;;;6.78;2.83;;;;;;;;;;10373800;28;20026;-57
2023/03/31 13:37:28;;;;;;;3.95;2.70;;;;;;;;;;10371751;28;20025;-59
2023/03/31 13:43:07;;;;;;;4.45;2.35;;;;;;;;;;10373654;28;20053;-58
2023/03/31 13:48:46;;;;;;;4.82;2.92;;;;;;;;;;10358725;28;20437;-58
2023/03/31 13:54:24;;;;;;;5.75;2.80;;;;;;;;;;10391274;28;20396;-60
2023/03/31 14:00:00;;;;;;;4.43;2.55;;;;;;;;;;10397346;28;20055;-59
2023/03/31 14:05:31;;;;;;;3.85;2.70;;;;;;;;;;10369041;28;20396;-59
2023/03/31 14:10:39;;;;;;;7.50;3.00;;;;;;;;;;10367979;28;20025;-58
2023/03/31 14:15:49;;;;;;;4.38;2.83;;;;;;;;;;10365928;28;20037;-58
2023/03/31 14:21:02;;;;;;;5.85;3.20;;;;;;;;;;10382949;28;20037;-58
2023/03/31 14:26:41;;;;;;;4.60;3.03;;;;;;;;;;10370735;28;20030;-57
2023/03/31 14:32:27;;;;;;;7.60;3.08;;;;;;;;;;10360085;28;20092;-61
2023/03/31 14:37:29;;;;;;;6.75;3.10;;;;;;;;;;10328171;28;20030;-61
2023/03/31 14:42:51;;;;;;;5.97;3.35;;;;;;;;;;10352194;28;20382;-59
2023/03/31 14:47:54;;;;;;;8.57;4.53;;;;;;;;;;10371046;28;20084;-58
2023/03/31 14:52:55;;;;;;;10.43;5.13;;;;;;;;;;10360478;28;20045;-59
2023/03/31 14:57:59;;;;;;;16.55;5.25;;;;;;;;;;10356287;28;20052;-58
2023/03/31 15:03:04;;;;;;;9.63;5.18;;;;;;;;;;10368973;28;20033;-58
2023/03/31 15:08:18;;;;;;;14.77;5.28;;;;;;;;;;10345183;28;20425;-57
2023/03/31 15:13:33;;;;;;;11.82;4.97;;;;;;;;;;10363852;28;20493;-58
2023/03/31 15:18:38;;;;;;;8.82;5.47;;;;;;;;;;10346133;28;20030;-58
2023/03/31 15:23:40;;;;;;;12.80;5.25;;;;;;;;;;10346247;28;20033;-59
2023/03/31 15:28:55;;;;;;;11.85;4.45;;;;;;;;;;10361805;28;20028;-59
2023/03/31 15:33:56;;;;;;;10.63;4.78;;;;;;;;;;10391233;28;20037;-57
2023/03/31 15:38:58;;;;;;;11.13;4.88;;;;;;;;;;10397655;28;20377;-59
2023/03/31 15:44:31;;;;;;;10.63;4.70;;;;;;;;;;10386536;28;20067;-59
2023/03/31 15:49:32;;;;;;;7.38;5.10;;;;;;;;;;10388106;28;20454;-60
2023/03/31 15:54:36;;;;;;;10.57;4.90;;;;;;;;;;10383636;28;20138;-58
2023/03/31 15:59:54;;;;;;;8.13;4.70;;;;;;;;;;10383732;28;20033;-60
2023/03/31 16:04:58;;;;;;;6.77;4.50;;;;;;;;;;10379743;28;20493;-60
2023/03/31 16:10:07;;;;;;;11.73;5.35;;;;;;;;;;10365069;28;20116;-60
2023/03/31 16:15:14;;;;;;;11.07;5.55;;;;;;;;;;10377784;28;20104;-58
2023/03/31 16:20:20;;;;;;;7.95;4.80;;;;;;;;;;10391499;28;20045;-60
2023/03/31 16:25:23;;;;;;;7.28;4.50;;;;;;;;;;10402832;28;20025;-59
2023/03/31 16:30:42;;;;;;;11.82;5.10;;;;;;;;;;10389893;28;20045;-58
2023/03/31 16:35:49;;;;;;;9.63;5.15;;;;;;;;;;10355984;28;20037;-58
2023/03/31 16:40:53;;;;;;;8.50;4.43;;;;;;;;;;10355514;28;20440;-60
2023/03/31 16:45:59;;;;;;;6.10;4.75;;;;;;;;;;10368614;28;20441;-60
2023/03/31 16:51:00;;;;;;;14.38;5.30;;;;;;;;;;10342438;28;20034;-59
2023/03/31 16:56:06;;;;;;;7.45;5.10;;;;;;;;;;10366051;28;20057;-59
2023/03/31 17:01:08;;;;;;;7.63;4.75;;;;;;;;;;10368204;28;20571;-61
2023/03/31 17:06:11;;;;;;;9.27;4.18;;;;;;;;;;10380012;28;20048;-58
2023/03/31 17:11:13;;;;;;;10.05;5.00;;;;;;;;;;10373839;28;20056;-58
2023/03/31 17:16:14;;;;;;;19.02;6.32;;;;;;;;;;10366431;28;20072;-59
2023/03/31 17:21:19;;;;;;;19.92;5.25;;;;;;;;;;10375284;28;20120;-56
2023/03/31 17:26:20;;;;;;;18.63;5.65;;;;;;;;;;10375266;28;20396;-56
2023/03/31 17:31:21;;;;;;;9.55;4.88;;;;;;;;;;10372875;28;20022;-61
2023/03/31 17:36:22;;;;;;;8.43;5.25;;;;;;;;;;10367862;28;20390;-57
2023/03/31 17:41:22;;;;;;;10.52;4.95;;;;;;;;;;10367716;28;20391;-57
2023/03/31 17:46:23;;;;;;;16.63;4.70;;;;;;;;;;10359672;28;20401;-57
2023/03/31 17:51:24;;;;;;;11.23;4.82;;;;;;;;;;10376192;28;20404;-57
2023/03/31 17:56:25;;;;;;;9.00;5.40;;;;;;;;;;10378998;28;20056;-54
2023/03/31 18:01:25;;;;;;;7.70;4.68;;;;;;;;;;10363200;28;20500;-57
2023/03/31 18:06:26;;;;;;;10.68;5.05;;;;;;;;;;10378924;28;20026;-55
2023/03/31 18:11:28;;;;;;;6.95;4.68;;;;;;;;;;10367049;28;20030;-55
2023/03/31 18:16:30;;;;;;;7.38;4.63;;;;;;;;;;10367862;28;20018;-57
2023/03/31 18:21:30;;;;;;;11.95;5.10;;;;;;;;;;10362199;28;20579;-57
2023/03/31 18:26:31;;;;;;;6.78;4.63;;;;;;;;;;10370579;28;20088;-57
2023/03/31 18:31:32;;;;;;;9.60;4.97;;;;;;;;;;10369035;28;20065;-57
2023/03/31 18:36:32;;;;;;;16.40;5.30;;;;;;;;;;10385305;28;20500;-60
2023/03/31 18:41:33;;;;;;;8.38;4.38;;;;;;;;;;10380394;28;20037;-57
2023/03/31 18:46:34;;;;;;;8.60;5.63;;;;;;;;;;10372320;28;20200;-56
2023/03/31 18:51:35;;;;;;;7.53;4.90;;;;;;;;;;10381207;28;20018;-57
2023/03/31 18:56:35;;;;;;;6.05;4.30;;;;;;;;;;10381016;28;20049;-57
2023/03/31 19:01:38;;;;;;;7.88;4.85;;;;;;;;;;10388581;28;20029;-57
2023/03/31 19:06:39;;;;;;;6.97;4.35;;;;;;;;;;10377394;28;20047;-57
2023/03/31 19:11:40;;;;;;;8.05;4.70;;;;;;;;;;10365652;28;20465;-61
2023/03/31 19:16:43;;;;;;;11.05;4.82;;;;;;;;;;10360916;28;20022;-58
2023/03/31 19:21:44;;;;;;;10.95;4.97;;;;;;;;;;10401265;28;20021;-59
2023/03/31 19:26:46;;;;;;;9.25;4.43;;;;;;;;;;10367439;28;20499;-58
2023/03/31 19:31:47;;;;;;;8.65;4.95;;;;;;;;;;10371963;28;20117;-59
2023/03/31 19:36:47;;;;;;;19.52;5.35;;;;;;;;;;10369198;28;20034;-58
2023/03/31 19:41:48;;;;;;;19.88;5.35;;;;;;;;;;10390217;28;20083;-59
2023/03/31 19:46:49;;;;;;;14.73;5.88;;;;;;;;;;10398059;28;20029;-58
2023/03/31 19:51:49;;;;;;;13.32;4.70;;;;;;;;;;10368571;28;20029;-58
2023/03/31 19:56:50;;;;;;;13.70;5.13;;;;;;;;;;10364805;28;20033;-58
2023/03/31 20:01:50;;;;;;;15.77;6.25;;;;;;;;;;10368404;28;20025;-58
2023/03/31 20:06:52;;;;;;;10.82;4.93;;;;;;;;;;10358134;28;20397;-58
2023/03/31 20:11:52;;;;;;;9.73;4.97;;;;;;;;;;10367096;28;20478;-58
2023/03/31 20:16:53;;;;;;;10.55;4.70;;;;;;;;;;10366497;28;20038;-61
2023/03/31 20:21:56;;;;;;;11.10;4.68;;;;;;;;;;10363709;28;20099;-60
2023/03/31 20:26:57;;;;;;;9.23;4.93;;;;;;;;;;10365287;28;20109;-61
2023/03/31 20:31:58;;;;;;;6.93;4.63;;;;;;;;;;10364754;28;20438;-61
2023/03/31 20:36:59;;;;;;;16.50;5.38;;;;;;;;;;10363332;28;20026;-59
2023/03/31 20:42:00;;;;;;;7.32;4.80;;;;;;;;;;10362288;28;20306;-61
2023/03/31 20:47:00;;;;;;;7.50;4.32;;;;;;;;;;10363829;28;20065;-61
2023/03/31 20:52:01;;;;;;;6.05;4.05;;;;;;;;;;10361176;28;20058;-61
2023/03/31 20:57:04;;;;;;;8.48;4.03;;;;;;;;;;10367061;28;20528;-61
2023/03/31 21:02:05;;;;;;;8.43;4.18;;;;;;;;;;10369884;28;20537;-61
2023/03/31 21:07:05;;;;;;;9.65;4.25;;;;;;;;;;10375540;28;20056;-58
2023/03/31 21:12:06;;;;;;;9.60;4.63;;;;;;;;;;10369575;28;20060;-58
2023/03/31 21:17:07;;;;;;;7.28;4.78;;;;;;;;;;10393237;28;20022;-59
2023/03/31 21:22:07;;;;;;;10.57;4.70;;;;;;;;;;10387974;28;20037;-59
2023/03/31 21:27:08;;;;;;;8.00;4.72;;;;;;;;;;10366908;28;20482;-60
2023/03/31 21:32:08;;;;;;;7.60;4.70;;;;;;;;;;10377022;28;20485;-60
2023/03/31 21:37:09;;;;;;;6.93;4.45;;;;;;;;;;10380271;28;20477;-58
2023/03/31 21:42:10;;;;;;;8.40;4.80;;;;;;;;;;10376884;28;20402;-58
2023/03/31 21:47:11;;;;;;;7.68;4.72;;;;;;;;;;10356530;28;20021;-59
2023/03/31 21:52:11;;;;;;;10.95;4.78;;;;;;;;;;10378851;28;20048;-58
2023/03/31 21:57:12;;;;;;;7.20;4.78;;;;;;;;;;10385848;28;20034;-61
2023/03/31 22:02:12;;;;;;;7.28;4.72;;;;;;;;;;10348705;28;20482;-58
2023/03/31 22:07:13;;;;;;;8.35;4.75;;;;;;;;;;10345134;28;20057;-58
2023/03/31 22:12:14;;;;;;;9.25;4.57;;;;;;;;;;10376469;28;20041;-60
2023/03/31 22:17:14;;;;;;;7.65;4.25;;;;;;;;;;10390221;28;20029;-59
2023/03/31 22:22:15;;;;;;;6.88;4.60;;;;;;;;;;10388485;28;20066;-59
2023/03/31 22:27:16;;;;;;;5.35;3.90;;;;;;;;;;10397710;28;20469;-58
2023/03/31 22:32:18;;;;;;;8.48;4.55;;;;;;;;;;10387021;28;20053;-61
2023/03/31 22:37:19;;;;;;;6.35;4.30;;;;;;;;;;10400326;28;20090;-61
2023/03/31 22:42:20;;;;;;;6.18;4.35;;;;;;;;;;10389363;28;20026;-61
2023/03/31 22:47:21;;;;;;;6.47;4.60;;;;;;;;;;10388195;28;20017;-60
2023/03/31 22:52:21;;;;;;;7.80;4.00;;;;;;;;;;10398786;28;20036;-61
2023/03/31 22:57:22;;;;;;;7.18;4.00;;;;;;;;;;10401665;28;20034;-61
2023/03/31 23:02:23;;;;;;;12.82;4.22;;;;;;;;;;10406269;28;20056;-61
2023/03/31 23:07:23;;;;;;;10.13;4.25;;;;;;;;;;10394119;28;20034;-60
2023/03/31 23:12:25;;;;;;;5.22;3.97;;;;;;;;;;10383784;28;20033;-59
2023/03/31 23:17:26;;;;;;;9.00;3.90;;;;;;;;;;10381108;28;20029;-60
2023/03/31 23:22:26;;;;;;;9.65;3.60;;;;;;;;;;10399340;28;20030;-60
2023/03/31 23:27:27;;;;;;;5.82;3.58;;;;;;;;;;10392220;28;20021;-60
2023/03/31 23:32:28;;;;;;;7.38;3.53;;;;;;;;;;10400566;28;20040;-61
2023/03/31 23:37:28;;;;;;;8.57;3.35;;;;;;;;;;10392529;28;20026;-60
2023/03/31 23:42:29;;;;;;;7.35;3.58;;;;;;;;;;10376984;28;20030;-60
2023/03/31 23:47:31;;;;;;;7.13;3.58;;;;;;;;;;10382261;28;20289;-60
2023/03/31 23:52:34;;;;;;;4.13;3.65;;;;;;;;;;10375488;28;20065;-59
2023/03/31 23:57:34;;;;;;;5.13;3.28;;;;;;;;;;10376445;28;20040;-60
